METAR|ÜBERSETZT|TAF
EDHK 010920Z 22010KT 190V250 6000 -RADZ FEW014 BKN018 OVC021 17/17 Q1010
Login|Impressum|Kontakt



Anmeldung für Mitglieder

Bitte melden Sie sich an um den internen Bereich zu nutzen.
Benutzername:
Password: